createdAt,value
2019-05-09T00:00:23.237Z,95.50
2019-05-09T00:06:24.989Z,95.60
2019-05-09T00:12:26.557Z,95.40
2019-05-09T00:18:28.165Z,95.20
2019-05-09T00:24:29.799Z,95.30
2019-05-09T00:30:50.004Z,95.40
2019-05-09T00:36:53.869Z,95.60
2019-05-09T00:42:55.599Z,95.70
2019-05-09T00:49:02.168Z,96.00
2019-05-09T00:55:04.896Z,95.40
2019-05-09T01:01:06.704Z,95.90
2019-05-09T01:07:08.219Z,95.70
2019-05-09T01:13:09.976Z,95.80
2019-05-09T01:19:13.935Z,95.80
2019-05-09T01:25:15.478Z,96.10
2019-05-09T01:31:17.254Z,95.80
2019-05-09T01:37:18.923Z,95.70
2019-05-09T01:43:20.909Z,96.00
2019-05-09T01:49:23.296Z,96.00
2019-05-09T01:55:43.543Z,96.10
2019-05-09T02:01:45.928Z,96.30
2019-05-09T02:07:47.551Z,96.40
2019-05-09T02:13:49.565Z,96.30
2019-05-09T02:19:53.256Z,96.50
2019-05-09T02:25:55.135Z,95.90
2019-05-09T02:31:59.515Z,96.00
2019-05-09T02:38:01.186Z,96.00
2019-05-09T02:44:03.141Z,95.80
2019-05-09T02:50:08.972Z,95.80
2019-05-09T02:56:09.806Z,95.80
2019-05-09T03:02:19.781Z,95.60
2019-05-09T03:08:22.072Z,95.50
2019-05-09T03:14:23.781Z,95.70
2019-05-09T03:20:29.949Z,95.80
2019-05-09T03:26:33.309Z,95.50
2019-05-09T03:32:38.555Z,95.30
2019-05-09T03:38:38.261Z,95.40
2019-05-09T03:44:39.925Z,95.50
2019-05-09T03:50:41.403Z,95.60
2019-05-09T03:57:01.188Z,95.60
2019-05-09T04:03:03.201Z,95.40
2019-05-09T04:09:07.541Z,95.10
2019-05-09T04:15:09.352Z,94.80
2019-05-09T04:21:10.917Z,94.70
2019-05-09T04:27:14.278Z,94.50
2019-05-09T04:33:17.713Z,94.20
2019-05-09T04:39:23.713Z,94.00
2019-05-09T04:45:28.341Z,93.80
2019-05-09T04:51:30.056Z,93.20
2019-05-09T04:57:31.734Z,93.00
2019-05-09T05:03:34.372Z,92.60
2019-05-09T05:09:37.684Z,92.50
2019-05-09T05:15:39.455Z,91.80
2019-05-09T05:21:41.161Z,90.40
2019-05-09T05:27:42.771Z,90.20
2019-05-09T05:33:53.905Z,89.80
2019-05-09T05:39:58.322Z,90.20
2019-05-09T05:46:03.022Z,90.10
2019-05-09T05:52:04.925Z,89.10
2019-05-09T05:58:08.603Z,81.60
2019-05-09T06:04:10.206Z,77.30
2019-05-09T06:10:12.102Z,79.10
2019-05-09T06:16:13.800Z,80.40
2019-05-09T06:22:15.564Z,83.90
2019-05-09T06:28:18.221Z,84.80
2019-05-09T06:34:21.178Z,85.30
2019-05-09T06:40:23.387Z,85.20
2019-05-09T06:46:39.354Z,85.00
2019-05-09T06:52:41.103Z,81.20
2019-05-09T06:58:43.102Z,82.90
2019-05-09T07:04:49.223Z,79.70
2019-05-09T07:10:50.871Z,77.90
2019-05-09T07:16:52.476Z,76.90
2019-05-09T07:22:55.045Z,77.60
2019-05-09T07:28:56.776Z,78.70
2019-05-09T07:35:00.463Z,77.70
2019-05-09T07:41:03.171Z,76.80
2019-05-09T07:47:07.327Z,75.60
2019-05-09T07:53:10.646Z,73.20
2019-05-09T07:59:12.221Z,72.00
2019-05-09T08:05:17.554Z,72.70
2019-05-09T08:11:20.170Z,68.00
2019-05-09T08:17:21.800Z,69.60
2019-05-09T08:23:23.359Z,71.30
2019-05-09T08:29:27.974Z,69.10
2019-05-09T08:35:28.973Z,70.40
2019-05-09T08:41:30.615Z,66.30
2019-05-09T08:47:32.310Z,67.80
2019-05-09T08:53:34.873Z,70.20
2019-05-09T08:59:38.282Z,66.40
2019-05-09T09:05:43.174Z,64.40
2019-05-09T09:11:43.589Z,67.10
2019-05-09T09:17:45.200Z,66.80
2019-05-09T09:23:50.432Z,67.80
2019-05-09T09:29:50.587Z,67.00
2019-05-09T09:35:52.005Z,65.20
2019-05-09T09:41:55.368Z,63.40
2019-05-09T09:47:59.160Z,62.40
2019-05-09T09:54:00.252Z,60.70
2019-05-09T10:00:18.125Z,62.50
2019-05-09T10:06:22.931Z,61.20
2019-05-09T10:12:24.733Z,60.80
2019-05-09T10:18:28.151Z,60.40
2019-05-09T10:24:29.783Z,61.60
2019-05-09T10:30:33.538Z,60.40
2019-05-09T10:36:35.026Z,58.20
2019-05-09T10:42:42.307Z,58.10
2019-05-09T10:48:47.905Z,59.00
2019-05-09T10:54:49.175Z,60.80
2019-05-09T11:00:50.624Z,60.20
2019-05-09T11:06:52.140Z,56.70
2019-05-09T11:12:53.723Z,56.40
2019-05-09T11:18:55.376Z,60.70
2019-05-09T11:24:57.943Z,54.60
2019-05-09T11:30:59.698Z,57.80
2019-05-09T11:37:01.273Z,59.60
2019-05-09T11:43:02.798Z,57.60
2019-05-09T11:49:04.447Z,57.40
2019-05-09T11:55:08.002Z,59.20
2019-05-09T12:01:10.057Z,54.50
2019-05-09T12:07:11.761Z,53.50
2019-05-09T12:13:13.423Z,55.50
2019-05-09T12:19:17.758Z,53.70
2019-05-09T12:25:19.854Z,53.70
2019-05-09T12:31:23.889Z,56.00
2019-05-09T12:37:27.912Z,58.00
2019-05-09T12:43:28.881Z,55.50
2019-05-09T12:49:30.390Z,54.90
2019-05-09T12:55:32.252Z,52.10
2019-05-09T13:01:33.817Z,52.70
2019-05-09T13:07:37.741Z,53.80
2019-05-09T13:13:40.782Z,54.20
2019-05-09T13:19:44.861Z,55.60
2019-05-09T13:27:39.006Z,56.90
2019-05-09T13:33:42.297Z,57.60
2019-05-09T13:39:43.846Z,52.90
2019-05-09T13:45:46.150Z,50.50
2019-05-09T13:51:58.289Z,53.10
2019-05-09T14:00:39.408Z,53.50
2019-05-09T14:06:42.618Z,56.50
2019-05-09T14:12:44.524Z,56.50
2019-05-09T14:18:48.372Z,56.60
2019-05-09T14:24:49.388Z,58.60
2019-05-09T14:30:52.123Z,58.80
2019-05-09T14:36:53.923Z,58.90
2019-05-09T14:42:57.673Z,58.80
2019-05-09T14:48:58.672Z,57.10
2019-05-09T14:55:00.093Z,58.10
2019-05-09T15:01:01.906Z,57.00
2019-05-09T15:07:03.452Z,56.10
2019-05-09T15:13:07.688Z,54.70
2019-05-09T15:19:08.690Z,52.90
2019-05-09T15:25:10.891Z,53.90
2019-05-09T15:31:12.550Z,57.10
2019-05-09T15:37:14.152Z,57.20
2019-05-09T15:43:18.515Z,60.20
2019-05-09T15:49:20.406Z,63.10
2019-05-09T15:55:23.064Z,63.80
2019-05-09T16:01:27.887Z,60.40
2019-05-09T16:07:29.273Z,62.60
2019-05-09T16:13:30.949Z,61.20
2019-05-09T16:19:37.863Z,60.40
2019-05-09T16:25:39.861Z,61.20
2019-05-09T16:31:42.099Z,63.20
2019-05-09T16:38:01.698Z,64.00
2019-05-09T16:43:47.900Z,64.40
2019-05-09T16:49:49.683Z,65.20
2019-05-09T16:56:09.095Z,65.90
2019-05-09T17:02:21.737Z,64.10
2019-05-09T17:08:17.747Z,64.50
2019-05-09T17:14:19.566Z,62.70
2019-05-09T17:20:23.155Z,60.70
2019-05-09T17:26:24.903Z,61.20
2019-05-09T17:32:28.462Z,61.90
2019-05-09T17:38:30.264Z,61.40
2019-05-09T17:44:32.645Z,63.60
2019-05-09T17:50:34.387Z,65.40
2019-05-09T17:56:37.866Z,67.80
2019-05-09T18:02:39.309Z,69.80
2019-05-09T18:08:40.889Z,70.50
2019-05-09T18:14:42.557Z,72.10
2019-05-09T18:20:44.143Z,71.80
2019-05-09T18:26:47.479Z,72.50
2019-05-09T18:32:51.039Z,74.70
2019-05-09T18:38:52.546Z,76.00
2019-05-09T18:44:56.202Z,75.40
2019-05-09T18:50:58.213Z,75.20
2019-05-09T18:57:01.624Z,75.90
2019-05-09T19:03:03.484Z,76.00
2019-05-09T19:09:06.060Z,77.60
2019-05-09T19:15:13.125Z,77.50
2019-05-09T19:21:17.016Z,78.80
2019-05-09T19:27:18.523Z,80.10
2019-05-09T19:33:20.260Z,80.10
2019-05-09T19:39:24.366Z,81.60
2019-05-09T19:45:34.004Z,81.10
2019-05-09T19:51:39.273Z,81.80
2019-05-09T19:57:41.405Z,82.30
2019-05-09T20:03:49.418Z,81.10
2019-05-09T20:09:52.151Z,80.80
2019-05-09T20:15:53.708Z,80.40
2019-05-09T20:21:55.267Z,80.00
2019-05-09T20:27:56.866Z,80.70
2019-05-09T20:33:59.338Z,81.90
2019-05-09T20:40:01.247Z,83.10
2019-05-09T20:46:02.882Z,82.50
2019-05-09T20:52:04.473Z,83.70
2019-05-09T20:58:06.008Z,84.30
2019-05-09T21:04:07.610Z,83.50
2019-05-09T21:10:09.270Z,83.20
2019-05-09T21:16:11.061Z,83.90
2019-05-09T21:22:12.497Z,84.60
2019-05-09T21:28:14.097Z,84.60
2019-05-09T21:34:17.140Z,85.10
2019-05-09T21:40:18.795Z,85.40
2019-05-09T21:46:20.364Z,85.80
2019-05-09T21:52:22.042Z,87.00
2019-05-09T21:58:23.611Z,87.10
2019-05-09T22:04:25.250Z,88.10
2019-05-09T22:10:27.043Z,88.00
2019-05-09T22:16:28.493Z,88.80
2019-05-09T22:22:30.095Z,89.30
2019-05-09T22:28:32.613Z,89.40
2019-05-09T22:34:35.634Z,89.40
2019-05-09T22:40:37.176Z,89.90
2019-05-09T22:46:38.816Z,88.90
2019-05-09T22:52:40.302Z,89.30
2019-05-09T22:58:41.867Z,89.60
2019-05-09T23:04:43.569Z,89.10
2019-05-09T23:10:45.215Z,89.80
2019-05-09T23:16:50.271Z,89.60
2019-05-09T23:22:50.559Z,89.90
2019-05-09T23:28:52.197Z,89.60
2019-05-09T23:34:53.901Z,90.40
2019-05-09T23:40:56.350Z,90.30
2019-05-09T23:47:00.990Z,90.40
2019-05-09T23:53:06.149Z,90.80
2019-05-09T23:59:26.760Z,91.90
